sensor_id;sensor_type;location;lat;lon;timestamp;pressure;altitude;pressure_sealevel;temperature
70435;BMP280;57876;47.792;12.960;2022-10-13T00:01:25;97410.63;;;18.59
70435;BMP280;57876;47.792;12.960;2022-10-13T00:03:50;97423.03;;;18.60
70435;BMP280;57876;47.792;12.960;2022-10-13T00:06:18;97420.09;;;18.58
70435;BMP280;57876;47.792;12.960;2022-10-13T00:08:42;97416.78;;;18.60
70435;BMP280;57876;47.792;12.960;2022-10-13T00:11:21;97416.66;;;18.58
70435;BMP280;57876;47.792;12.960;2022-10-13T00:13:47;97415.91;;;18.57
70435;BMP280;57876;47.792;12.960;2022-10-13T00:16:13;97423.41;;;18.57
70435;BMP280;57876;47.792;12.960;2022-10-13T00:18:38;97426.16;;;18.57
70435;BMP280;57876;47.792;12.960;2022-10-13T00:21:07;97420.66;;;18.57
70435;BMP280;57876;47.792;12.960;2022-10-13T00:23:33;97426.16;;;18.57
70435;BMP280;57876;47.792;12.960;2022-10-13T00:25:58;97415.91;;;18.57
70435;BMP280;57876;47.792;12.960;2022-10-13T00:28:22;97418.66;;;18.57
70435;BMP280;57876;47.792;12.960;2022-10-13T00:30:46;97414.44;;;18.56
70435;BMP280;57876;47.792;12.960;2022-10-13T00:33:12;97413.72;;;18.56
70435;BMP280;57876;47.792;12.960;2022-10-13T00:35:45;97415.72;;;18.55
70435;BMP280;57876;47.792;12.960;2022-10-13T00:38:10;97417.78;;;18.55
70435;BMP280;57876;47.792;12.960;2022-10-13T00:40:45;97418.47;;;18.55
70435;BMP280;57876;47.792;12.960;2022-10-13T00:43:46;97420.53;;;18.55
70435;BMP280;57876;47.792;12.960;2022-10-13T00:46:12;97417.78;;;18.55
70435;BMP280;57876;47.792;12.960;2022-10-13T00:48:36;97423.94;;;18.55
70435;BMP280;57876;47.792;12.960;2022-10-13T00:51:01;97416.31;;;18.54
70435;BMP280;57876;47.792;12.960;2022-10-13T00:53:29;97429.44;;;18.55
70435;BMP280;57876;47.792;12.960;2022-10-13T00:55:55;97417.59;;;18.53
70435;BMP280;57876;47.792;12.960;2022-10-13T00:58:21;97423.78;;;18.53
70435;BMP280;57876;47.792;12.960;2022-10-13T01:00:49;97411.38;;;18.52
70435;BMP280;57876;47.792;12.960;2022-10-13T01:03:14;97409.38;;;18.53
70435;BMP280;57876;47.792;12.960;2022-10-13T01:05:39;97408.63;;;18.52
70435;BMP280;57876;47.792;12.960;2022-10-13T01:08:04;97408.09;;;18.54
70435;BMP280;57876;47.792;12.960;2022-10-13T01:13:08;97396.22;;;18.51
70435;BMP280;57876;47.792;12.960;2022-10-13T01:15:47;97401.69;;;18.51
70435;BMP280;57876;47.792;12.960;2022-10-13T01:18:38;97392.72;;;18.51
70435;BMP280;57876;47.792;12.960;2022-10-13T01:24:05;97386.56;;;18.50
70435;BMP280;57876;47.792;12.960;2022-10-13T01:29:42;97387.84;;;18.49
70435;BMP280;57876;47.792;12.960;2022-10-13T01:32:30;97372.13;;;18.50
70435;BMP280;57876;47.792;12.960;2022-10-13T01:35:07;97382.38;;;18.49
70435;BMP280;57876;47.792;12.960;2022-10-13T01:40:08;97371.41;;;18.49
70435;BMP280;57876;47.792;12.960;2022-10-13T01:42:51;97367.94;;;18.49
70435;BMP280;57876;47.792;12.960;2022-10-13T01:45:18;97369.94;;;18.48
70435;BMP280;57876;47.792;12.960;2022-10-13T01:47:45;97359.00;;;18.48
70435;BMP280;57876;47.792;12.960;2022-10-13T01:50:12;97360.28;;;18.47
70435;BMP280;57876;47.792;12.960;2022-10-13T01:52:39;97357.53;;;18.47
70435;BMP280;57876;47.792;12.960;2022-10-13T01:55:10;97358.25;;;18.48
70435;BMP280;57876;47.792;12.960;2022-10-13T01:57:40;97365.00;;;18.47
70435;BMP280;57876;47.792;12.960;2022-10-13T02:00:09;97351.31;;;18.47
70435;BMP280;57876;47.792;12.960;2022-10-13T02:03:25;97352.78;;;18.48
70435;BMP280;57876;47.792;12.960;2022-10-13T02:08:08;97345.13;;;18.46
70435;BMP280;57876;47.792;12.960;2022-10-13T02:10:39;97353.34;;;18.46
70435;BMP280;57876;47.792;12.960;2022-10-13T02:13:10;97350.59;;;18.46
70435;BMP280;57876;47.792;12.960;2022-10-13T02:15:39;97347.13;;;18.46
70435;BMP280;57876;47.792;12.960;2022-10-13T02:18:06;97354.63;;;18.45
70435;BMP280;57876;47.792;12.960;2022-10-13T02:20:31;97349.88;;;18.46
70435;BMP280;57876;47.792;12.960;2022-10-13T02:23:00;97344.41;;;18.46
70435;BMP280;57876;47.792;12.960;2022-10-13T02:25:26;97352.44;;;18.44
70435;BMP280;57876;47.792;12.960;2022-10-13T02:27:52;97355.94;;;18.44
70435;BMP280;57876;47.792;12.960;2022-10-13T02:30:25;97351.16;;;18.45
70435;BMP280;57876;47.792;12.960;2022-10-13T02:32:50;97350.44;;;18.44
70435;BMP280;57876;47.792;12.960;2022-10-13T02:35:15;97349.69;;;18.44
70435;BMP280;57876;47.792;12.960;2022-10-13T02:37:40;97345.50;;;18.43
70435;BMP280;57876;47.792;12.960;2022-10-13T02:40:05;97357.94;;;18.44
70435;BMP280;57876;47.792;12.960;2022-10-13T02:42:29;97356.47;;;18.43
70435;BMP280;57876;47.792;12.960;2022-10-13T02:44:53;97359.22;;;18.43
70435;BMP280;57876;47.792;12.960;2022-10-13T02:47:18;97359.22;;;18.43
70435;BMP280;57876;47.792;12.960;2022-10-13T02:49:42;97359.22;;;18.43
70435;BMP280;57876;47.792;12.960;2022-10-13T02:52:07;97351.56;;;18.41
70435;BMP280;57876;47.792;12.960;2022-10-13T02:54:31;97357.75;;;18.42
70435;BMP280;57876;47.792;12.960;2022-10-13T02:56:55;97364.53;;;18.41
70435;BMP280;57876;47.792;12.960;2022-10-13T02:59:20;97362.50;;;18.41
70435;BMP280;57876;47.792;12.960;2022-10-13T03:01:44;97367.28;;;18.41
70435;BMP280;57876;47.792;12.960;2022-10-13T03:04:10;97368.00;;;18.41
70435;BMP280;57876;47.792;12.960;2022-10-13T03:06:34;97370.72;;;18.41
70435;BMP280;57876;47.792;12.960;2022-10-13T03:08:59;97369.28;;;18.40
70435;BMP280;57876;47.792;12.960;2022-10-13T03:11:23;97367.81;;;18.39
70435;BMP280;57876;47.792;12.960;2022-10-13T03:13:48;97360.34;;;18.40
70435;BMP280;57876;47.792;12.960;2022-10-13T03:16:12;97369.84;;;18.39
70435;BMP280;57876;47.792;12.960;2022-10-13T03:18:36;97379.50;;;18.40
70435;BMP280;57876;47.792;12.960;2022-10-13T03:21:03;97382.78;;;18.38
70435;BMP280;57876;47.792;12.960;2022-10-13T03:23:28;97387.56;;;18.38
70435;BMP280;57876;47.792;12.960;2022-10-13T03:25:53;97385.53;;;18.38
70435;BMP280;57876;47.792;12.960;2022-10-13T03:28:18;97382.09;;;18.38
70435;BMP280;57876;47.792;12.960;2022-10-13T03:30:42;97386.81;;;18.37
70435;BMP280;57876;47.792;12.960;2022-10-13T03:33:07;97394.31;;;18.37
70435;BMP280;57876;47.792;12.960;2022-10-13T03:35:31;97390.88;;;18.36
70435;BMP280;57876;47.792;12.960;2022-10-13T03:37:56;97391.56;;;18.37
70435;BMP280;57876;47.792;12.960;2022-10-13T03:40:21;97395.59;;;18.36
70435;BMP280;57876;47.792;12.960;2022-10-13T03:42:46;97387.38;;;18.36
70435;BMP280;57876;47.792;12.960;2022-10-13T03:45:10;97396.34;;;18.36
70435;BMP280;57876;47.792;12.960;2022-10-13T03:47:35;97386.66;;;18.35
70435;BMP280;57876;47.792;12.960;2022-10-13T03:49:59;97396.16;;;18.34
70435;BMP280;57876;47.792;12.960;2022-10-13T03:52:24;97389.41;;;18.35
70435;BMP280;57876;47.792;12.960;2022-10-13T03:54:48;97389.41;;;18.35
70435;BMP280;57876;47.792;12.960;2022-10-13T03:57:13;97394.16;;;18.35
70435;BMP280;57876;47.792;12.960;2022-10-13T03:59:41;97387.19;;;18.34
70435;BMP280;57876;47.792;12.960;2022-10-13T04:02:06;97383.00;;;18.33
70435;BMP280;57876;47.792;12.960;2022-10-13T04:04:30;97386.50;;;18.33
70435;BMP280;57876;47.792;12.960;2022-10-13T04:06:55;97386.50;;;18.33
70435;BMP280;57876;47.792;12.960;2022-10-13T04:09:19;97393.97;;;18.33
70435;BMP280;57876;47.792;12.960;2022-10-13T04:11:43;97392.53;;;18.32
70435;BMP280;57876;47.792;12.960;2022-10-13T04:14:08;97384.31;;;18.32
70435;BMP280;57876;47.792;12.960;2022-10-13T04:16:32;97385.75;;;18.33
70435;BMP280;57876;47.792;12.960;2022-10-13T04:19:02;97385.75;;;18.33
70435;BMP280;57876;47.792;12.960;2022-10-13T04:21:29;97384.31;;;18.32
70435;BMP280;57876;47.792;12.960;2022-10-13T04:23:57;97384.47;;;18.34
70435;BMP280;57876;47.792;12.960;2022-10-13T04:26:23;97383.59;;;18.31
70435;BMP280;57876;47.792;12.960;2022-10-13T04:28:50;97386.34;;;18.31
70435;BMP280;57876;47.792;12.960;2022-10-13T04:31:15;97380.84;;;18.31
70435;BMP280;57876;47.792;12.960;2022-10-13T04:33:40;97380.13;;;18.31
70435;BMP280;57876;47.792;12.960;2022-10-13T04:36:06;97384.31;;;18.32
70435;BMP280;57876;47.792;12.960;2022-10-13T04:38:31;97383.94;;;18.35
70435;BMP280;57876;47.792;12.960;2022-10-13T04:40:55;97387.75;;;18.40
70435;BMP280;57876;47.792;12.960;2022-10-13T04:43:19;97386.22;;;18.46
70435;BMP280;57876;47.792;12.960;2022-10-13T04:45:44;97385.56;;;18.55
70435;BMP280;57876;47.792;12.960;2022-10-13T04:48:08;97380.06;;;18.63
70435;BMP280;57876;47.792;12.960;2022-10-13T04:50:32;97371.75;;;18.70
70435;BMP280;57876;47.792;12.960;2022-10-13T04:52:58;97380.50;;;18.76
70435;BMP280;57876;47.792;12.960;2022-10-13T04:55:22;97367.84;;;18.80
70435;BMP280;57876;47.792;12.960;2022-10-13T04:57:47;97367.63;;;18.86
70435;BMP280;57876;47.792;12.960;2022-10-13T05:00:12;97364.63;;;18.91
70435;BMP280;57876;47.792;12.960;2022-10-13T05:02:36;97362.94;;;18.96
70435;BMP280;57876;47.792;12.960;2022-10-13T05:05:01;97358.38;;;18.98
70435;BMP280;57876;47.792;12.960;2022-10-13T05:07:25;97355.78;;;19.00
70435;BMP280;57876;47.792;12.960;2022-10-13T05:09:50;97355.78;;;19.00
70435;BMP280;57876;47.792;12.960;2022-10-13T05:12:15;97364.88;;;19.03
70435;BMP280;57876;47.792;12.960;2022-10-13T05:14:39;97366.50;;;19.06
70435;BMP280;57876;47.792;12.960;2022-10-13T05:17:03;97364.50;;;19.06
70435;BMP280;57876;47.792;12.960;2022-10-13T05:19:28;97372.00;;;19.06
70435;BMP280;57876;47.792;12.960;2022-10-13T05:21:52;97374.16;;;19.07
70435;BMP280;57876;47.792;12.960;2022-10-13T05:24:17;97380.41;;;19.08
70435;BMP280;57876;47.792;12.960;2022-10-13T05:26:43;97376.75;;;19.05
70435;BMP280;57876;47.792;12.960;2022-10-13T05:29:08;97375.47;;;19.06
70435;BMP280;57876;47.792;12.960;2022-10-13T05:31:33;97386.25;;;19.04
70435;BMP280;57876;47.792;12.960;2022-10-13T05:33:58;97383.50;;;19.04
70435;BMP280;57876;47.792;12.960;2022-10-13T05:36:25;97384.81;;;19.03
70435;BMP280;57876;47.792;12.960;2022-10-13T05:38:51;97377.88;;;19.02
70435;BMP280;57876;47.792;12.960;2022-10-13T05:41:16;97379.16;;;19.01
70435;BMP280;57876;47.792;12.960;2022-10-13T05:43:41;97392.13;;;19.01
70435;BMP280;57876;47.792;12.960;2022-10-13T05:46:05;97387.94;;;19.00
70435;BMP280;57876;47.792;12.960;2022-10-13T05:48:31;97383.59;;;18.97
70435;BMP280;57876;47.792;12.960;2022-10-13T05:50:57;97386.34;;;18.97
70435;BMP280;57876;47.792;12.960;2022-10-13T05:53:24;97388.19;;;18.94
70435;BMP280;57876;47.792;12.960;2022-10-13T05:55:51;97387.47;;;18.94
70435;BMP280;57876;47.792;12.960;2022-10-13T05:58:16;97377.78;;;18.93
70435;BMP280;57876;47.792;12.960;2022-10-13T06:00:42;97386.56;;;18.91
70435;BMP280;57876;47.792;12.960;2022-10-13T06:03:09;97385.84;;;18.91
70435;BMP280;57876;47.792;12.960;2022-10-13T06:05:35;97380.22;;;18.89
70435;BMP280;57876;47.792;12.960;2022-10-13T06:07:59;97384.94;;;18.88
70435;BMP280;57876;47.792;12.960;2022-10-13T06:10:24;97392.44;;;18.88
70435;BMP280;57876;47.792;12.960;2022-10-13T06:12:49;97397.78;;;18.86
70435;BMP280;57876;47.792;12.960;2022-10-13T06:15:13;97397.78;;;18.86
70435;BMP280;57876;47.792;12.960;2022-10-13T06:17:38;97395.59;;;18.84
70435;BMP280;57876;47.792;12.960;2022-10-13T06:20:04;97398.16;;;18.82
70435;BMP280;57876;47.792;12.960;2022-10-13T06:22:29;97395.44;;;18.82
70435;BMP280;57876;47.792;12.960;2022-10-13T06:24:53;97395.25;;;18.80
70435;BMP280;57876;47.792;12.960;2022-10-13T06:27:18;97403.47;;;18.80
70435;BMP280;57876;47.792;12.960;2022-10-13T06:29:42;97401.31;;;18.79
70435;BMP280;57876;47.792;12.960;2022-10-13T06:32:06;97402.59;;;18.78
70435;BMP280;57876;47.792;12.960;2022-10-13T06:34:31;97404.59;;;18.77
70435;BMP280;57876;47.792;12.960;2022-10-13T06:36:56;97403.16;;;18.76
70435;BMP280;57876;47.792;12.960;2022-10-13T06:39:21;97405.91;;;18.76
70435;BMP280;57876;47.792;12.960;2022-10-13T06:41:45;97401.69;;;18.75
70435;BMP280;57876;47.792;12.960;2022-10-13T06:44:10;97394.75;;;18.74
70435;BMP280;57876;47.792;12.960;2022-10-13T06:46:34;97398.03;;;18.73
70435;BMP280;57876;47.792;12.960;2022-10-13T06:48:58;97401.53;;;18.73
70435;BMP280;57876;47.792;12.960;2022-10-13T06:51:23;97404.84;;;18.72
70435;BMP280;57876;47.792;12.960;2022-10-13T06:53:47;97393.16;;;18.71
70435;BMP280;57876;47.792;12.960;2022-10-13T06:56:12;97393.69;;;18.70
70435;BMP280;57876;47.792;12.960;2022-10-13T06:58:37;97392.41;;;18.71
70435;BMP280;57876;47.792;12.960;2022-10-13T07:01:02;97400.63;;;18.71
70435;BMP280;57876;47.792;12.960;2022-10-13T07:03:27;97400.47;;;18.69
70435;BMP280;57876;47.792;12.960;2022-10-13T07:05:52;97403.94;;;18.69
70435;BMP280;57876;47.792;12.960;2022-10-13T07:08:16;97396.44;;;18.70
70435;BMP280;57876;47.792;12.960;2022-10-13T07:10:42;97397.72;;;18.69
70435;BMP280;57876;47.792;12.960;2022-10-13T07:13:06;97397.00;;;18.68
70435;BMP280;57876;47.792;12.960;2022-10-13T07:15:31;97395.72;;;18.69
70435;BMP280;57876;47.792;12.960;2022-10-13T07:17:55;97384.00;;;18.69
70435;BMP280;57876;47.792;12.960;2022-10-13T07:20:21;97401.19;;;18.69
70435;BMP280;57876;47.792;12.960;2022-10-13T07:22:45;97391.69;;;18.70
70435;BMP280;57876;47.792;12.960;2022-10-13T07:25:10;97389.66;;;18.71
70435;BMP280;57876;47.792;12.960;2022-10-13T07:27:34;97382.19;;;18.71
70435;BMP280;57876;47.792;12.960;2022-10-13T07:29:59;97385.06;;;18.73
70435;BMP280;57876;47.792;12.960;2022-10-13T07:32:23;97382.34;;;18.73
70435;BMP280;57876;47.792;12.960;2022-10-13T07:34:51;97381.78;;;18.75
70435;BMP280;57876;47.792;12.960;2022-10-13T07:37:16;97385.25;;;18.75
70435;BMP280;57876;47.792;12.960;2022-10-13T07:39:40;97380.50;;;18.76
70435;BMP280;57876;47.792;12.960;2022-10-13T07:42:05;97385.41;;;18.77
70435;BMP280;57876;47.792;12.960;2022-10-13T07:44:29;97381.38;;;18.78
70435;BMP280;57876;47.792;12.960;2022-10-13T07:46:53;97380.09;;;18.79
70435;BMP280;57876;47.792;12.960;2022-10-13T07:49:18;97373.16;;;18.78
70435;BMP280;57876;47.792;12.960;2022-10-13T07:51:43;97373.31;;;18.80
70435;BMP280;57876;47.792;12.960;2022-10-13T07:54:07;97376.81;;;18.81
70435;BMP280;57876;47.792;12.960;2022-10-13T07:56:34;97370.59;;;18.80
70435;BMP280;57876;47.792;12.960;2022-10-13T07:59:01;97371.31;;;18.81
70435;BMP280;57876;47.792;12.960;2022-10-13T08:01:25;97376.81;;;18.81
70435;BMP280;57876;47.792;12.960;2022-10-13T08:03:54;97368.00;;;18.82
70435;BMP280;57876;47.792;12.960;2022-10-13T08:06:19;97362.34;;;18.80
70435;BMP280;57876;47.792;12.960;2022-10-13T08:08:43;97371.31;;;18.81
70435;BMP280;57876;47.792;12.960;2022-10-13T08:11:11;97367.28;;;18.82
70435;BMP280;57876;47.792;12.960;2022-10-13T08:13:35;97362.53;;;18.82
70435;BMP280;57876;47.792;12.960;2022-10-13T08:16:01;97357.75;;;18.83
70435;BMP280;57876;47.792;12.960;2022-10-13T08:18:25;97363.25;;;18.83
70435;BMP280;57876;47.792;12.960;2022-10-13T08:20:50;97361.25;;;18.83
70435;BMP280;57876;47.792;12.960;2022-10-13T08:23:14;97362.69;;;18.84
70435;BMP280;57876;47.792;12.960;2022-10-13T08:25:40;97357.94;;;18.85
70435;BMP280;57876;47.792;12.960;2022-10-13T08:28:06;97350.44;;;18.85
70435;BMP280;57876;47.792;12.960;2022-10-13T08:30:36;97354.63;;;18.86
70435;BMP280;57876;47.792;12.960;2022-10-13T08:33:00;97349.13;;;18.86
70435;BMP280;57876;47.792;12.960;2022-10-13T08:35:24;97343.09;;;18.88
70435;BMP280;57876;47.792;12.960;2022-10-13T08:37:49;97350.06;;;18.89
70435;BMP280;57876;47.792;12.960;2022-10-13T08:40:16;97350.78;;;18.89
70435;BMP280;57876;47.792;12.960;2022-10-13T08:42:43;97351.66;;;18.92
70435;BMP280;57876;47.792;12.960;2022-10-13T08:45:16;97350.19;;;18.91
70435;BMP280;57876;47.792;12.960;2022-10-13T08:47:46;97339.94;;;18.91
70435;BMP280;57876;47.792;12.960;2022-10-13T08:50:14;97338.66;;;18.92
70435;BMP280;57876;47.792;12.960;2022-10-13T08:52:59;97339.41;;;18.93
70435;BMP280;57876;47.792;12.960;2022-10-13T08:57:49;97336.09;;;18.94
70435;BMP280;57876;47.792;12.960;2022-10-13T09:00:14;97342.28;;;18.95
70435;BMP280;57876;47.792;12.960;2022-10-13T09:02:39;97342.28;;;18.95
70435;BMP280;57876;47.792;12.960;2022-10-13T09:05:57;97338.25;;;18.96
70435;BMP280;57876;47.792;12.960;2022-10-13T09:07:57;97341.75;;;18.96
70435;BMP280;57876;47.792;12.960;2022-10-13T09:10:22;97347.94;;;18.97
70435;BMP280;57876;47.792;12.960;2022-10-13T09:12:46;97340.47;;;18.97
70435;BMP280;57876;47.792;12.960;2022-10-13T09:15:11;97337.72;;;18.97
70435;BMP280;57876;47.792;12.960;2022-10-13T09:17:37;97339.72;;;18.97
70435;BMP280;57876;47.792;12.960;2022-10-13T09:28:01;97335.69;;;18.98
70435;BMP280;57876;47.792;12.960;2022-10-13T09:30:36;97328.19;;;18.98
70435;BMP280;57876;47.792;12.960;2022-10-13T09:33:15;97329.63;;;18.99
70435;BMP280;57876;47.792;12.960;2022-10-13T09:35:42;97317.94;;;18.99
70435;BMP280;57876;47.792;12.960;2022-10-13T09:38:12;97317.22;;;18.98
70435;BMP280;57876;47.792;12.960;2022-10-13T09:40:37;97319.97;;;18.98
70435;BMP280;57876;47.792;12.960;2022-10-13T09:43:15;97319.97;;;18.98
70435;BMP280;57876;47.792;12.960;2022-10-13T09:45:41;97317.22;;;18.98
70435;BMP280;57876;47.792;12.960;2022-10-13T09:48:14;97321.25;;;18.97
70435;BMP280;57876;47.792;12.960;2022-10-13T09:50:47;97325.47;;;18.98
70435;BMP280;57876;47.792;12.960;2022-10-13T09:53:29;97324.72;;;18.98
70435;BMP280;57876;47.792;12.960;2022-10-13T09:58:47;97323.44;;;18.99
70435;BMP280;57876;47.792;12.960;2022-10-13T10:01:22;97315.03;;;18.97
70435;BMP280;57876;47.792;12.960;2022-10-13T10:03:48;97307.56;;;18.97
70435;BMP280;57876;47.792;12.960;2022-10-13T10:06:14;97308.25;;;18.98
70435;BMP280;57876;47.792;12.960;2022-10-13T10:11:29;97306.09;;;18.96
70435;BMP280;57876;47.792;12.960;2022-10-13T10:13:56;97303.34;;;18.96
70435;BMP280;57876;47.792;12.960;2022-10-13T10:16:29;97302.63;;;18.96
70435;BMP280;57876;47.792;12.960;2022-10-13T10:19:16;97307.34;;;18.95
70435;BMP280;57876;47.792;12.960;2022-10-13T10:22:10;97305.94;;;18.94
70435;BMP280;57876;47.792;12.960;2022-10-13T10:25:21;97301.16;;;18.95
70435;BMP280;57876;47.792;12.960;2022-10-13T10:28:14;97303.91;;;18.95
70435;BMP280;57876;47.792;12.960;2022-10-13T10:31:05;97302.63;;;18.96
70435;BMP280;57876;47.792;12.960;2022-10-13T10:36:10;97301.88;;;18.95
70435;BMP280;57876;47.792;12.960;2022-10-13T10:44:10;97297.13;;;18.96
70435;BMP280;57876;47.792;12.960;2022-10-13T10:46:39;97300.63;;;18.96
70435;BMP280;57876;47.792;12.960;2022-10-13T10:49:19;97295.13;;;18.96
70435;BMP280;57876;47.792;12.960;2022-10-13T10:51:45;97301.16;;;18.95
70435;BMP280;57876;47.792;12.960;2022-10-13T10:54:38;97294.97;;;18.94
70435;BMP280;57876;47.792;12.960;2022-10-13T10:57:10;97292.22;;;18.94
70435;BMP280;57876;47.792;12.960;2022-10-13T11:04:59;97286.00;;;18.94
70435;BMP280;57876;47.792;12.960;2022-10-13T11:15:10;97264.78;;;18.94
70435;BMP280;57876;47.792;12.960;2022-10-13T11:17:37;97266.06;;;18.93
70435;BMP280;57876;47.792;12.960;2022-10-13T11:25:37;97255.84;;;18.94
70435;BMP280;57876;47.792;12.960;2022-10-13T11:30:51;97255.09;;;18.93
70435;BMP280;57876;47.792;12.960;2022-10-13T11:33:51;97242.16;;;18.94
70435;BMP280;57876;47.792;12.960;2022-10-13T11:41:38;97226.97;;;18.93
70435;BMP280;57876;47.792;12.960;2022-10-13T11:44:26;97228.97;;;18.92
70435;BMP280;57876;47.792;12.960;2022-10-13T11:47:06;97221.50;;;18.93
70435;BMP280;57876;47.792;12.960;2022-10-13T11:50:02;97215.25;;;18.92
70435;BMP280;57876;47.792;12.960;2022-10-13T11:52:45;97211.97;;;18.94
70435;BMP280;57876;47.792;12.960;2022-10-13T11:55:16;97208.50;;;18.93
70435;BMP280;57876;47.792;12.960;2022-10-13T11:57:42;97194.06;;;18.93
70435;BMP280;57876;47.792;12.960;2022-10-13T12:00:13;97203.59;;;18.92
70435;BMP280;57876;47.792;12.960;2022-10-13T12:02:47;97193.34;;;18.92
70435;BMP280;57876;47.792;12.960;2022-10-13T12:07:47;97172.69;;;18.91
70435;BMP280;57876;47.792;12.960;2022-10-13T12:10:20;97185.09;;;18.92
70435;BMP280;57876;47.792;12.960;2022-10-13T12:12:50;97177.47;;;18.91
70435;BMP280;57876;47.792;12.960;2022-10-13T12:15:33;97183.66;;;18.91
70435;BMP280;57876;47.792;12.960;2022-10-13T12:17:58;97178.16;;;18.91
70435;BMP280;57876;47.792;12.960;2022-10-13T12:20:25;97171.97;;;18.91
70435;BMP280;57876;47.792;12.960;2022-10-13T12:22:52;97171.22;;;18.90
70435;BMP280;57876;47.792;12.960;2022-10-13T12:25:19;97163.75;;;18.91
70435;BMP280;57876;47.792;12.960;2022-10-13T12:27:49;97166.47;;;18.91
70435;BMP280;57876;47.792;12.960;2022-10-13T12:32:52;97167.81;;;18.90
70435;BMP280;57876;47.792;12.960;2022-10-13T12:35:17;97164.47;;;18.91
70435;BMP280;57876;47.792;12.960;2022-10-13T12:37:42;97158.25;;;18.91
70435;BMP280;57876;47.792;12.960;2022-10-13T12:40:11;97155.53;;;18.91
70435;BMP280;57876;47.792;12.960;2022-10-13T12:42:37;97156.22;;;18.91
70435;BMP280;57876;47.792;12.960;2022-10-13T12:45:03;97156.22;;;18.91
70435;BMP280;57876;47.792;12.960;2022-10-13T12:52:54;97154.22;;;18.92
70435;BMP280;57876;47.792;12.960;2022-10-13T12:55:20;97153.50;;;18.91
70435;BMP280;57876;47.792;12.960;2022-10-13T12:57:48;97154.22;;;18.92
70435;BMP280;57876;47.792;12.960;2022-10-13T13:00:20;97149.47;;;18.92
70435;BMP280;57876;47.792;12.960;2022-10-13T13:02:53;97148.75;;;18.92
70435;BMP280;57876;47.792;12.960;2022-10-13T13:05:39;97143.97;;;18.92
70435;BMP280;57876;47.792;12.960;2022-10-13T13:08:22;97135.03;;;18.92
70435;BMP280;57876;47.792;12.960;2022-10-13T13:10:56;97142.69;;;18.93
70435;BMP280;57876;47.792;12.960;2022-10-13T13:13:22;97139.94;;;18.93
70435;BMP280;57876;47.792;12.960;2022-10-13T13:15:47;97144.72;;;18.93
70435;BMP280;57876;47.792;12.960;2022-10-13T13:18:37;97139.22;;;18.93
70435;BMP280;57876;47.792;12.960;2022-10-13T13:21:08;97133.75;;;18.93
70435;BMP280;57876;47.792;12.960;2022-10-13T13:23:33;97147.53;;;19.02
70435;BMP280;57876;47.792;12.960;2022-10-13T13:28:36;97141.78;;;19.08
70435;BMP280;57876;47.792;12.960;2022-10-13T13:31:01;97147.09;;;19.06
70435;BMP280;57876;47.792;12.960;2022-10-13T13:33:26;97140.56;;;19.01
70435;BMP280;57876;47.792;12.960;2022-10-13T13:35:51;97134.94;;;18.99
70435;BMP280;57876;47.792;12.960;2022-10-13T13:38:16;97126.00;;;18.99
70435;BMP280;57876;47.792;12.960;2022-10-13T13:40:40;97139.53;;;18.97
70435;BMP280;57876;47.792;12.960;2022-10-13T13:43:06;97129.13;;;18.95
70435;BMP280;57876;47.792;12.960;2022-10-13T13:45:32;97136.63;;;18.95
70435;BMP280;57876;47.792;12.960;2022-10-13T13:47:56;97134.47;;;18.93
70435;BMP280;57876;47.792;12.960;2022-10-13T13:50:23;97128.28;;;18.93
70435;BMP280;57876;47.792;12.960;2022-10-13T13:52:48;97129.56;;;18.92
70435;BMP280;57876;47.792;12.960;2022-10-13T13:55:13;97126.81;;;18.92
70435;BMP280;57876;47.792;12.960;2022-10-13T13:57:37;97117.13;;;18.91
70435;BMP280;57876;47.792;12.960;2022-10-13T14:00:02;97117.13;;;18.91
70435;BMP280;57876;47.792;12.960;2022-10-13T14:02:27;97113.66;;;18.90
70435;BMP280;57876;47.792;12.960;2022-10-13T14:04:52;97104.75;;;18.90
70435;BMP280;57876;47.792;12.960;2022-10-13T14:07:16;97097.81;;;18.89
70435;BMP280;57876;47.792;12.960;2022-10-13T14:09:41;97112.22;;;18.89
70435;BMP280;57876;47.792;12.960;2022-10-13T14:12:05;97094.31;;;18.88
70435;BMP280;57876;47.792;12.960;2022-10-13T14:14:31;97094.31;;;18.88
70435;BMP280;57876;47.792;12.960;2022-10-13T14:16:55;97091.59;;;18.88
70435;BMP280;57876;47.792;12.960;2022-10-13T14:19:20;97088.09;;;18.88
70435;BMP280;57876;47.792;12.960;2022-10-13T14:21:44;97090.13;;;18.87
70435;BMP280;57876;47.792;12.960;2022-10-13T14:24:09;97086.66;;;18.87
70435;BMP280;57876;47.792;12.960;2022-10-13T14:26:34;97081.91;;;18.87
70435;BMP280;57876;47.792;12.960;2022-10-13T14:28:58;97085.94;;;18.86
70435;BMP280;57876;47.792;12.960;2022-10-13T14:31:23;97089.38;;;18.87
70435;BMP280;57876;47.792;12.960;2022-10-13T14:33:47;97083.19;;;18.86
70435;BMP280;57876;47.792;12.960;2022-10-13T14:36:11;97085.22;;;18.86
70435;BMP280;57876;47.792;12.960;2022-10-13T14:38:36;97089.38;;;18.87
70435;BMP280;57876;47.792;12.960;2022-10-13T14:41:03;97081.91;;;18.87
70435;BMP280;57876;47.792;12.960;2022-10-13T14:43:28;97083.34;;;18.88
70435;BMP280;57876;47.792;12.960;2022-10-13T14:45:53;97084.41;;;18.93
70435;BMP280;57876;47.792;12.960;2022-10-13T14:48:21;97081.06;;;18.94
70435;BMP280;57876;47.792;12.960;2022-10-13T14:50:45;97092.31;;;19.15
70435;BMP280;57876;47.792;12.960;2022-10-13T14:53:10;97095.66;;;19.33
70435;BMP280;57876;47.792;12.960;2022-10-13T14:55:38;97089.38;;;19.49
70435;BMP280;57876;47.792;12.960;2022-10-13T14:58:02;97091.72;;;19.62
70435;BMP280;57876;47.792;12.960;2022-10-13T15:00:27;97094.19;;;19.77
70435;BMP280;57876;47.792;12.960;2022-10-13T15:02:51;97096.25;;;19.86
70435;BMP280;57876;47.792;12.960;2022-10-13T15:05:15;97093.78;;;19.90
70435;BMP280;57876;47.792;12.960;2022-10-13T15:07:40;97091.91;;;20.02
70435;BMP280;57876;47.792;12.960;2022-10-13T15:10:04;97082.09;;;20.08
70435;BMP280;57876;47.792;12.960;2022-10-13T15:12:29;97084.25;;;20.09
70435;BMP280;57876;47.792;12.960;2022-10-13T15:14:53;97083.53;;;20.18
70435;BMP280;57876;47.792;12.960;2022-10-13T15:17:18;97076.75;;;20.29